GLO1843 SBVT-SBGL
Flight info
| Callsign | GLO1843 |
|---|---|
| Flight time | 0h 57m |
| Altitude | 28000 |
| Route | VAPOK1C MABSI UZ44 TIGBU DCT MOLSU UTBOM2A |
| Aircraft | B738/M-SDE2E3FGHIRWXY/LB1 |
Departure
| Time | 2026-04-16 14:37 |
|---|---|
| Airport | Eurico de Aguiar Salles International Airport (SBVT) |
Arrival
| Time | 2026-04-16 15:34 |
|---|---|
| Airport | Rio Galeão – Tom Jobim International Airport (SBGL) |
| Time | Latitude | Longitude | Altitude | Speed | Heading |
|---|---|---|---|---|---|
| 2026-04-16 14:26 | -20.26534 | -40.28168 | 34 ft | 0 kts | 262° |
| 2026-04-16 14:27 | -20.26533 | -40.28162 | 34 ft | 2 kts | 259° |
| 2026-04-16 14:27 | -20.26530 | -40.28145 | 32 ft | 2 kts | 261° |
| 2026-04-16 14:27 | -20.26528 | -40.28128 | 31 ft | 2 kts | 262° |
| 2026-04-16 14:27 | -20.26525 | -40.28110 | 30 ft | 2 kts | 262° |
| 2026-04-16 14:28 | -20.26522 | -40.28093 | 34 ft | 2 kts | 251° |
| 2026-04-16 14:28 | -20.26516 | -40.28077 | 34 ft | 2 kts | 243° |
| 2026-04-16 14:28 | -20.26510 | -40.28060 | 34 ft | 2 kts | 275° |
| 2026-04-16 14:28 | -20.26517 | -40.28045 | 34 ft | 2 kts | 326° |
| 2026-04-16 14:29 | -20.26532 | -40.28037 | 30 ft | 2 kts | 343° |
| 2026-04-16 14:29 | -20.26540 | -40.28035 | 34 ft | 1 kts | 348° |
| 2026-04-16 14:29 | -20.26542 | -40.28035 | 34 ft | 0 kts | 348° |
| 2026-04-16 14:31 | -20.26533 | -40.28036 | 30 ft | 5 kts | 352° |
| 2026-04-16 14:31 | -20.26479 | -40.28044 | 34 ft | 11 kts | 352° |
| 2026-04-16 14:32 | -20.26388 | -40.28057 | 34 ft | 16 kts | 352° |
| 2026-04-16 14:32 | -20.26261 | -40.28075 | 32 ft | 20 kts | 352° |
| 2026-04-16 14:32 | -20.26119 | -40.28095 | 34 ft | 20 kts | 353° |
| 2026-04-16 14:32 | -20.25981 | -40.28115 | 35 ft | 20 kts | 352° |
| 2026-04-16 14:33 | -20.25848 | -40.28134 | 34 ft | 19 kts | 352° |
| 2026-04-16 14:33 | -20.25720 | -40.28154 | 34 ft | 18 kts | 352° |
| 2026-04-16 14:33 | -20.25597 | -40.28173 | 34 ft | 18 kts | 351° |
| 2026-04-16 14:33 | -20.25476 | -40.28191 | 31 ft | 18 kts | 352° |
| 2026-04-16 14:34 | -20.25351 | -40.28185 | 27 ft | 19 kts | 26° |
| 2026-04-16 14:34 | -20.25303 | -40.28154 | 28 ft | 0 kts | 32° |
| 2026-04-16 14:35 | -20.25275 | -40.28135 | 29 ft | 9 kts | 32° |
| 2026-04-16 14:35 | -20.25186 | -40.28078 | 29 ft | 21 kts | 25° |
| 2026-04-16 14:35 | -20.25019 | -40.28080 | 27 ft | 26 kts | 352° |
| 2026-04-16 14:36 | -20.24859 | -40.28099 | 26 ft | 18 kts | 2° |
| 2026-04-16 14:36 | -20.24780 | -40.28101 | 24 ft | 6 kts | 292° |
| 2026-04-16 14:36 | -20.24790 | -40.28116 | 25 ft | 2 kts | 199° |
| 2026-04-16 14:36 | -20.24806 | -40.28113 | 23 ft | 2 kts | 170° |
| 2026-04-16 14:37 | -20.24941 | -40.28092 | 26 ft | 60 kts | 172° |
| 2026-04-16 14:37 | -20.25653 | -40.27986 | 36 ft | 145 kts | 172° |
| 2026-04-16 14:37 | -20.26884 | -40.27795 | 215 ft | 202 kts | 171° |
| 2026-04-16 14:37 | -20.28387 | -40.27565 | 780 ft | 235 kts | 173° |
| 2026-04-16 14:38 | -20.30049 | -40.27327 | 1807 ft | 245 kts | 175° |
| 2026-04-16 14:38 | -20.31736 | -40.27086 | 2867 ft | 247 kts | 173° |
| 2026-04-16 14:38 | -20.33422 | -40.26842 | 3765 ft | 250 kts | 174° |
| 2026-04-16 14:39 | -20.35179 | -40.26593 | 4393 ft | 256 kts | 176° |
| 2026-04-16 14:39 | -20.36945 | -40.26915 | 5004 ft | 263 kts | 204° |
| 2026-04-16 14:39 | -20.38402 | -40.28083 | 5698 ft | 267 kts | 230° |
| 2026-04-16 14:39 | -20.39676 | -40.29524 | 6337 ft | 270 kts | 211° |
| 2026-04-16 14:40 | -20.41341 | -40.30414 | 7022 ft | 271 kts | 204° |
| 2026-04-16 14:40 | -20.43062 | -40.31265 | 7680 ft | 275 kts | 204° |
| 2026-04-16 14:40 | -20.44804 | -40.32147 | 8423 ft | 277 kts | 205° |
| 2026-04-16 14:40 | -20.46554 | -40.33051 | 9157 ft | 282 kts | 205° |
| 2026-04-16 14:41 | -20.48324 | -40.33982 | 9881 ft | 286 kts | 205° |
| 2026-04-16 14:41 | -20.50127 | -40.34941 | 10403 ft | 297 kts | 206° |
| 2026-04-16 14:41 | -20.52052 | -40.35973 | 10584 ft | 320 kts | 206° |
| 2026-04-16 14:41 | -20.54106 | -40.37081 | 10736 ft | 342 kts | 206° |
| 2026-04-16 14:42 | -20.56274 | -40.38256 | 11080 ft | 354 kts | 206° |
| 2026-04-16 14:42 | -20.58486 | -40.39460 | 11640 ft | 359 kts | 206° |
| 2026-04-16 14:42 | -20.60723 | -40.40679 | 12289 ft | 361 kts | 206° |
| 2026-04-16 14:42 | -20.62942 | -40.41889 | 12921 ft | 364 kts | 206° |
| 2026-04-16 14:43 | -20.65206 | -40.43125 | 13533 ft | 368 kts | 206° |
| 2026-04-16 14:43 | -20.67499 | -40.44377 | 14099 ft | 372 kts | 206° |
| 2026-04-16 14:43 | -20.69805 | -40.45638 | 14740 ft | 371 kts | 207° |
| 2026-04-16 14:43 | -20.72111 | -40.46898 | 15373 ft | 373 kts | 207° |
| 2026-04-16 14:44 | -20.74442 | -40.48173 | 15875 ft | 378 kts | 207° |
| 2026-04-16 14:44 | -20.76801 | -40.49463 | 16404 ft | 381 kts | 207° |
| 2026-04-16 14:44 | -20.79142 | -40.50743 | 16996 ft | 383 kts | 207° |
| 2026-04-16 14:44 | -20.81528 | -40.52049 | 17534 ft | 387 kts | 208° |
| 2026-04-16 14:45 | -20.83938 | -40.53369 | 18059 ft | 390 kts | 208° |
| 2026-04-16 14:45 | -20.86362 | -40.54696 | 18548 ft | 392 kts | 208° |
| 2026-04-16 14:45 | -20.88803 | -40.56033 | 19025 ft | 394 kts | 208° |
| 2026-04-16 14:45 | -20.91202 | -40.57466 | 19488 ft | 396 kts | 214° |
| 2026-04-16 14:46 | -20.93431 | -40.59214 | 19947 ft | 397 kts | 218° |
| 2026-04-16 14:46 | -20.95612 | -40.61049 | 20400 ft | 400 kts | 218° |
| 2026-04-16 14:46 | -20.97767 | -40.62880 | 20848 ft | 402 kts | 218° |
| 2026-04-16 14:46 | -20.99977 | -40.64738 | 21290 ft | 404 kts | 218° |
| 2026-04-16 14:47 | -21.02208 | -40.66589 | 21735 ft | 406 kts | 217° |
| 2026-04-16 14:47 | -21.04451 | -40.68433 | 22170 ft | 408 kts | 217° |
| 2026-04-16 14:47 | -21.06716 | -40.70286 | 22575 ft | 411 kts | 217° |
| 2026-04-16 14:47 | -21.08995 | -40.72149 | 22975 ft | 413 kts | 217° |
| 2026-04-16 14:48 | -21.11256 | -40.73997 | 23383 ft | 415 kts | 217° |
| 2026-04-16 14:48 | -21.13555 | -40.75878 | 23773 ft | 416 kts | 217° |
| 2026-04-16 14:48 | -21.15865 | -40.77771 | 24093 ft | 419 kts | 217° |
| 2026-04-16 14:48 | -21.18186 | -40.79676 | 24403 ft | 421 kts | 217° |
| 2026-04-16 14:49 | -21.20521 | -40.81594 | 24711 ft | 423 kts | 218° |
| 2026-04-16 14:49 | -21.22865 | -40.83520 | 25016 ft | 426 kts | 218° |
| 2026-04-16 14:49 | -21.25224 | -40.85460 | 25303 ft | 428 kts | 218° |
| 2026-04-16 14:49 | -21.27590 | -40.87406 | 25632 ft | 429 kts | 218° |
| 2026-04-16 14:50 | -21.29958 | -40.89354 | 26061 ft | 427 kts | 218° |
| 2026-04-16 14:50 | -21.32309 | -40.91288 | 26542 ft | 425 kts | 218° |
| 2026-04-16 14:50 | -21.34607 | -40.93277 | 26985 ft | 423 kts | 224° |
| 2026-04-16 14:50 | -21.36558 | -40.95579 | 27392 ft | 422 kts | 232° |
| 2026-04-16 14:51 | -21.38225 | -40.98170 | 27843 ft | 421 kts | 239° |
| 2026-04-16 14:51 | -21.39536 | -41.00984 | 27990 ft | 423 kts | 246° |
| 2026-04-16 14:51 | -21.41727 | -41.06821 | 28004 ft | 420 kts | 248° |
| 2026-04-16 14:53 | -21.50394 | -41.30152 | 28016 ft | 421 kts | 247° |
| 2026-04-16 14:54 | -21.52585 | -41.35990 | 28020 ft | 420 kts | 247° |
| 2026-04-16 14:54 | -21.54769 | -41.41816 | 28017 ft | 420 kts | 247° |
| 2026-04-16 14:55 | -21.56946 | -41.47632 | 28014 ft | 419 kts | 247° |
| 2026-04-16 14:55 | -21.59119 | -41.53444 | 28029 ft | 419 kts | 247° |
| 2026-04-16 14:56 | -21.61276 | -41.59221 | 28021 ft | 419 kts | 247° |
| 2026-04-16 14:56 | -21.63445 | -41.65038 | 28016 ft | 419 kts | 247° |
| 2026-04-16 14:57 | -21.65609 | -41.70849 | 28015 ft | 418 kts | 247° |
| 2026-04-16 14:57 | -21.67773 | -41.76667 | 28019 ft | 418 kts | 247° |
| 2026-04-16 14:58 | -21.70997 | -41.85348 | 28016 ft | 419 kts | 247° |
| 2026-04-16 14:59 | -21.73157 | -41.91172 | 28020 ft | 419 kts | 247° |
| 2026-04-16 14:59 | -21.75317 | -41.97004 | 28025 ft | 418 kts | 247° |
| 2026-04-16 15:00 | -21.77456 | -42.02788 | 28020 ft | 418 kts | 247° |
| 2026-04-16 15:00 | -21.79608 | -42.08614 | 28018 ft | 418 kts | 247° |
| 2026-04-16 15:01 | -21.81753 | -42.14428 | 28018 ft | 418 kts | 247° |
| 2026-04-16 15:01 | -21.84594 | -42.19817 | 28034 ft | 415 kts | 229° |
| 2026-04-16 15:02 | -21.89047 | -42.23686 | 28028 ft | 417 kts | 210° |
| 2026-04-16 15:02 | -21.94156 | -42.26684 | 28029 ft | 418 kts | 210° |
| 2026-04-16 15:03 | -21.99254 | -42.29702 | 28038 ft | 418 kts | 210° |
| 2026-04-16 15:03 | -22.04314 | -42.32758 | 28035 ft | 419 kts | 211° |
| 2026-04-16 15:04 | -22.09041 | -42.36372 | 28048 ft | 416 kts | 229° |
| 2026-04-16 15:04 | -22.10703 | -42.38864 | 28029 ft | 405 kts | 240° |
| 2026-04-16 15:04 | -22.11789 | -42.41643 | 28030 ft | 400 kts | 253° |
| 2026-04-16 15:05 | -22.13152 | -42.47436 | 28038 ft | 402 kts | 255° |
| 2026-04-16 15:05 | -22.13830 | -42.50374 | 27696 ft | 402 kts | 254° |
| 2026-04-16 15:05 | -22.14508 | -42.53282 | 27269 ft | 398 kts | 254° |
| 2026-04-16 15:05 | -22.15187 | -42.56155 | 26838 ft | 393 kts | 254° |
| 2026-04-16 15:06 | -22.15869 | -42.59010 | 26383 ft | 390 kts | 254° |
| 2026-04-16 15:06 | -22.16547 | -42.61838 | 25932 ft | 387 kts | 254° |
| 2026-04-16 15:06 | -22.17222 | -42.64648 | 25460 ft | 385 kts | 254° |
| 2026-04-16 15:06 | -22.17893 | -42.67437 | 24991 ft | 384 kts | 254° |
| 2026-04-16 15:07 | -22.18562 | -42.70224 | 24534 ft | 383 kts | 254° |
| 2026-04-16 15:07 | -22.19218 | -42.72961 | 24082 ft | 382 kts | 254° |
| 2026-04-16 15:07 | -22.19883 | -42.75736 | 23622 ft | 381 kts | 254° |
| 2026-04-16 15:07 | -22.20545 | -42.78504 | 23097 ft | 379 kts | 254° |
| 2026-04-16 15:08 | -22.21204 | -42.81258 | 22627 ft | 377 kts | 254° |
| 2026-04-16 15:08 | -22.21858 | -42.83994 | 22168 ft | 374 kts | 254° |
| 2026-04-16 15:08 | -22.22504 | -42.86701 | 21820 ft | 369 kts | 254° |
| 2026-04-16 15:08 | -22.23132 | -42.89336 | 21525 ft | 365 kts | 254° |
| 2026-04-16 15:09 | -22.23763 | -42.91983 | 21220 ft | 361 kts | 254° |
| 2026-04-16 15:09 | -22.24390 | -42.94614 | 20930 ft | 362 kts | 254° |
| 2026-04-16 15:09 | -22.25021 | -42.97263 | 20639 ft | 366 kts | 254° |
| 2026-04-16 15:09 | -22.25657 | -42.99934 | 20332 ft | 368 kts | 254° |
| 2026-04-16 15:10 | -22.26292 | -43.02606 | 20013 ft | 365 kts | 254° |
| 2026-04-16 15:10 | -22.26925 | -43.05271 | 19613 ft | 366 kts | 254° |
| 2026-04-16 15:10 | -22.27557 | -43.07935 | 19209 ft | 366 kts | 254° |
| 2026-04-16 15:10 | -22.28179 | -43.10562 | 18804 ft | 366 kts | 255° |
| 2026-04-16 15:11 | -22.28809 | -43.13222 | 18407 ft | 365 kts | 255° |
| 2026-04-16 15:11 | -22.29438 | -43.15879 | 17964 ft | 362 kts | 255° |
| 2026-04-16 15:11 | -22.30059 | -43.18509 | 17547 ft | 359 kts | 255° |
| 2026-04-16 15:11 | -22.30675 | -43.21113 | 17147 ft | 356 kts | 255° |
| 2026-04-16 15:12 | -22.31285 | -43.23696 | 16759 ft | 353 kts | 255° |
| 2026-04-16 15:12 | -22.31884 | -43.26233 | 16374 ft | 351 kts | 255° |
| 2026-04-16 15:12 | -22.32483 | -43.28773 | 15987 ft | 348 kts | 255° |
| 2026-04-16 15:12 | -22.33078 | -43.31297 | 15607 ft | 345 kts | 255° |
| 2026-04-16 15:13 | -22.33668 | -43.33803 | 15234 ft | 342 kts | 255° |
| 2026-04-16 15:13 | -22.34253 | -43.36289 | 14883 ft | 340 kts | 255° |
| 2026-04-16 15:13 | -22.34835 | -43.38762 | 14482 ft | 339 kts | 255° |
| 2026-04-16 15:13 | -22.35413 | -43.41224 | 14114 ft | 338 kts | 255° |
| 2026-04-16 15:14 | -22.35991 | -43.43687 | 13740 ft | 337 kts | 255° |
| 2026-04-16 15:14 | -22.36631 | -43.46115 | 13316 ft | 336 kts | 246° |
| 2026-04-16 15:14 | -22.37919 | -43.48189 | 12929 ft | 333 kts | 225° |
| 2026-04-16 15:14 | -22.39786 | -43.49643 | 12522 ft | 332 kts | 205° |
| 2026-04-16 15:15 | -22.41887 | -43.50567 | 12144 ft | 330 kts | 201° |
| 2026-04-16 15:15 | -22.44036 | -43.51430 | 11731 ft | 329 kts | 201° |
| 2026-04-16 15:15 | -22.46184 | -43.52287 | 11327 ft | 328 kts | 201° |
| 2026-04-16 15:15 | -22.48320 | -43.53162 | 10933 ft | 328 kts | 201° |
| 2026-04-16 15:16 | -22.50452 | -43.54050 | 10520 ft | 328 kts | 201° |
| 2026-04-16 15:16 | -22.52579 | -43.54939 | 10109 ft | 328 kts | 201° |
| 2026-04-16 15:16 | -22.54729 | -43.55705 | 9930 ft | 319 kts | 189° |
| 2026-04-16 15:16 | -22.56891 | -43.55669 | 9914 ft | 306 kts | 169° |
| 2026-04-16 15:17 | -22.58858 | -43.54918 | 9834 ft | 295 kts | 155° |
| 2026-04-16 15:17 | -22.60650 | -43.53972 | 9753 ft | 285 kts | 154° |
| 2026-04-16 15:17 | -22.62406 | -43.53023 | 9555 ft | 280 kts | 154° |
| 2026-04-16 15:17 | -22.64155 | -43.52088 | 9162 ft | 282 kts | 154° |
| 2026-04-16 15:18 | -22.65931 | -43.51147 | 8659 ft | 288 kts | 154° |
| 2026-04-16 15:18 | -22.67775 | -43.50183 | 8020 ft | 299 kts | 154° |
| 2026-04-16 15:18 | -22.69677 | -43.49191 | 7405 ft | 308 kts | 154° |
| 2026-04-16 15:18 | -22.71636 | -43.48174 | 6824 ft | 314 kts | 155° |
| 2026-04-16 15:19 | -22.73686 | -43.47387 | 6592 ft | 309 kts | 164° |
| 2026-04-16 15:19 | -22.75716 | -43.46831 | 6465 ft | 300 kts | 165° |
| 2026-04-16 15:19 | -22.77710 | -43.46294 | 6397 ft | 290 kts | 165° |
| 2026-04-16 15:19 | -22.79622 | -43.45754 | 6322 ft | 278 kts | 164° |
| 2026-04-16 15:20 | -22.81483 | -43.45218 | 6008 ft | 277 kts | 164° |
| 2026-04-16 15:20 | -22.83338 | -43.44534 | 5194 ft | 286 kts | 148° |
| 2026-04-16 15:20 | -22.84330 | -43.43596 | 4703 ft | 289 kts | 126° |
| 2026-04-16 15:20 | -22.85029 | -43.41579 | 3970 ft | 291 kts | 92° |
| 2026-04-16 15:21 | -22.84418 | -43.38770 | 3073 ft | 291 kts | 62° |
| 2026-04-16 15:21 | -22.83760 | -43.37455 | 2521 ft | 295 kts | 63° |
| 2026-04-16 15:21 | -22.82920 | -43.35401 | 1773 ft | 299 kts | 69° |
| 2026-04-16 15:21 | -22.82260 | -43.33348 | 1464 ft | 285 kts | 72° |
| 2026-04-16 15:22 | -22.81735 | -43.31320 | 1142 ft | 274 kts | 76° |
| 2026-04-16 15:22 | -22.81319 | -43.29432 | 1501 ft | 236 kts | 77° |
| 2026-04-16 15:22 | -22.80963 | -43.27777 | 1702 ft | 221 kts | 77° |
| 2026-04-16 15:22 | -22.80621 | -43.26152 | 1727 ft | 224 kts | 77° |
| 2026-04-16 15:23 | -22.80245 | -43.24429 | 2012 ft | 249 kts | 77° |
| 2026-04-16 15:23 | -22.79828 | -43.22548 | 2675 ft | 261 kts | 76° |
| 2026-04-16 15:23 | -22.79402 | -43.20618 | 3482 ft | 265 kts | 76° |
| 2026-04-16 15:23 | -22.78695 | -43.18776 | 4230 ft | 268 kts | 50° |
| 2026-04-16 15:24 | -22.77183 | -43.17643 | 5103 ft | 267 kts | 18° |
| 2026-04-16 15:24 | -22.75341 | -43.17447 | 5835 ft | 271 kts | 352° |
| 2026-04-16 15:24 | -22.73576 | -43.18150 | 6212 ft | 273 kts | 326° |
| 2026-04-16 15:24 | -22.72266 | -43.19661 | 6282 ft | 282 kts | 299° |
| 2026-04-16 15:25 | -22.71704 | -43.21654 | 6287 ft | 273 kts | 275° |
| 2026-04-16 15:25 | -22.71672 | -43.23604 | 6281 ft | 253 kts | 270° |
| 2026-04-16 15:25 | -22.71707 | -43.25446 | 6276 ft | 237 kts | 270° |
| 2026-04-16 15:25 | -22.71741 | -43.27197 | 6294 ft | 229 kts | 269° |
| 2026-04-16 15:26 | -22.71769 | -43.28925 | 6284 ft | 229 kts | 270° |
| 2026-04-16 15:26 | -22.71788 | -43.30660 | 6300 ft | 231 kts | 270° |
| 2026-04-16 15:26 | -22.71803 | -43.32411 | 6315 ft | 233 kts | 270° |
| 2026-04-16 15:26 | -22.71816 | -43.34182 | 6310 ft | 235 kts | 270° |
| 2026-04-16 15:27 | -22.71825 | -43.35955 | 6321 ft | 236 kts | 270° |
| 2026-04-16 15:27 | -22.71832 | -43.37714 | 6303 ft | 236 kts | 270° |
| 2026-04-16 15:27 | -22.71837 | -43.39492 | 6221 ft | 237 kts | 270° |
| 2026-04-16 15:27 | -22.71841 | -43.41251 | 6029 ft | 228 kts | 270° |
| 2026-04-16 15:28 | -22.71988 | -43.42930 | 5628 ft | 225 kts | 249° |
| 2026-04-16 15:28 | -22.72999 | -43.44199 | 5091 ft | 229 kts | 207° |
| 2026-04-16 15:28 | -22.74531 | -43.44666 | 4588 ft | 230 kts | 189° |
| 2026-04-16 15:28 | -22.76107 | -43.44934 | 4131 ft | 230 kts | 188° |
| 2026-04-16 15:29 | -22.77642 | -43.45201 | 3963 ft | 216 kts | 189° |
| 2026-04-16 15:29 | -22.79074 | -43.45459 | 3884 ft | 202 kts | 189° |
| 2026-04-16 15:29 | -22.80452 | -43.45556 | 3705 ft | 197 kts | 168° |
| 2026-04-16 15:29 | -22.81761 | -43.45157 | 3565 ft | 196 kts | 163° |
| 2026-04-16 15:30 | -22.83050 | -43.44647 | 3326 ft | 199 kts | 145° |
| 2026-04-16 15:30 | -22.83917 | -43.43588 | 3057 ft | 186 kts | 115° |
| 2026-04-16 15:30 | -22.84247 | -43.42287 | 2850 ft | 175 kts | 92° |
| 2026-04-16 15:30 | -22.84128 | -43.40966 | 2693 ft | 179 kts | 78° |
| 2026-04-16 15:31 | -22.83814 | -43.39663 | 2483 ft | 178 kts | 74° |
| 2026-04-16 15:31 | -22.83478 | -43.38378 | 2256 ft | 175 kts | 74° |
| 2026-04-16 15:31 | -22.83151 | -43.37119 | 2017 ft | 172 kts | 75° |
| 2026-04-16 15:31 | -22.82842 | -43.35923 | 1849 ft | 155 kts | 74° |
| 2026-04-16 15:32 | -22.82556 | -43.34862 | 1745 ft | 148 kts | 74° |
| 2026-04-16 15:32 | -22.82277 | -43.33789 | 1546 ft | 147 kts | 75° |
| 2026-04-16 15:32 | -22.82008 | -43.32733 | 1343 ft | 143 kts | 75° |
| 2026-04-16 15:32 | -22.81744 | -43.31700 | 1185 ft | 143 kts | 75° |
| 2026-04-16 15:33 | -22.81478 | -43.30654 | 991 ft | 143 kts | 75° |
| 2026-04-16 15:33 | -22.81216 | -43.29623 | 815 ft | 141 kts | 74° |
| 2026-04-16 15:33 | -22.80961 | -43.28620 | 643 ft | 138 kts | 72° |
| 2026-04-16 15:33 | -22.80708 | -43.27603 | 458 ft | 140 kts | 74° |
| 2026-04-16 15:34 | -22.80471 | -43.26573 | 245 ft | 137 kts | 72° |
| 2026-04-16 15:34 | -22.80212 | -43.25576 | 70 ft | 137 kts | 72° |
| 2026-04-16 15:34 | -22.79973 | -43.24686 | 30 ft | 85 kts | 75° |
| 2026-04-16 15:34 | -22.79900 | -43.24396 | 31 ft | 22 kts | 76° |
| 2026-04-16 15:35 | -22.79882 | -43.24237 | 30 ft | 21 kts | 83° |
| 2026-04-16 15:35 | -22.79890 | -43.24094 | 28 ft | 18 kts | 95° |
| 2026-04-16 15:35 | -22.79899 | -43.23961 | 27 ft | 17 kts | 95° |
| 2026-04-16 15:35 | -22.79918 | -43.23880 | 29 ft | 9 kts | 121° |
| 2026-04-16 15:36 | -22.79968 | -43.23852 | 29 ft | 9 kts | 178° |
| 2026-04-16 15:36 | -22.80026 | -43.23845 | 27 ft | 8 kts | 171° |
| 2026-04-16 15:36 | -22.80082 | -43.23848 | 27 ft | 8 kts | 198° |
| 2026-04-16 15:36 | -22.80117 | -43.23892 | 28 ft | 8 kts | 252° |
| 2026-04-16 15:37 | -22.80132 | -43.23947 | 28 ft | 8 kts | 255° |
| 2026-04-16 15:37 | -22.80146 | -43.24001 | 28 ft | 7 kts | 254° |
| 2026-04-16 15:37 | -22.80161 | -43.24060 | 28 ft | 10 kts | 254° |
| 2026-04-16 15:37 | -22.80187 | -43.24161 | 27 ft | 18 kts | 254° |
| 2026-04-16 15:38 | -22.80223 | -43.24298 | 29 ft | 19 kts | 254° |
| 2026-04-16 15:38 | -22.80258 | -43.24435 | 27 ft | 19 kts | 255° |
| 2026-04-16 15:38 | -22.80293 | -43.24567 | 24 ft | 18 kts | 253° |
| 2026-04-16 15:38 | -22.80325 | -43.24696 | 27 ft | 17 kts | 255° |
| 2026-04-16 15:39 | -22.80357 | -43.24819 | 27 ft | 17 kts | 254° |
| 2026-04-16 15:39 | -22.80387 | -43.24938 | 27 ft | 16 kts | 255° |
| 2026-04-16 15:39 | -22.80417 | -43.25052 | 27 ft | 15 kts | 254° |
| 2026-04-16 15:39 | -22.80447 | -43.25161 | 28 ft | 15 kts | 250° |
| 2026-04-16 15:40 | -22.80496 | -43.25278 | 27 ft | 20 kts | 237° |
| 2026-04-16 15:40 | -22.80583 | -43.25394 | 30 ft | 20 kts | 223° |
| 2026-04-16 15:40 | -22.80696 | -43.25486 | 21 ft | 21 kts | 216° |
| 2026-04-16 15:40 | -22.80817 | -43.25576 | 24 ft | 21 kts | 205° |
| 2026-04-16 15:41 | -22.80917 | -43.25496 | 27 ft | 19 kts | 114° |
| 2026-04-16 15:41 | -22.81000 | -43.25383 | 21 ft | 21 kts | 180° |
| 2026-04-16 15:41 | -22.81112 | -43.25363 | 21 ft | 8 kts | 110° |
| 2026-04-16 15:41 | -22.81104 | -43.25314 | 21 ft | 3 kts | 78° |
| 2026-04-16 15:42 | -22.81104 | -43.25313 | 21 ft | 0 kts | 78° |